sensor_id;sensor_type;location;lat;lon;timestamp;P1;durP1;ratioP1;P2;durP2;ratioP2
9364;SDS011;4722;49.340;9.800;2022-10-31T00:00:19;2.50;;;1.48;;
9364;SDS011;4722;49.340;9.800;2022-10-31T00:02:45;2.95;;;1.35;;
9364;SDS011;4722;49.340;9.800;2022-10-31T00:05:11;3.65;;;1.95;;
9364;SDS011;4722;49.340;9.800;2022-10-31T00:07:37;6.55;;;1.63;;
9364;SDS011;4722;49.340;9.800;2022-10-31T00:10:03;5.00;;;1.80;;
9364;SDS011;4722;49.340;9.800;2022-10-31T00:12:29;5.28;;;1.38;;
9364;SDS011;4722;49.340;9.800;2022-10-31T00:14:55;2.70;;;1.15;;
9364;SDS011;4722;49.340;9.800;2022-10-31T00:17:21;5.50;;;2.13;;
9364;SDS011;4722;49.340;9.800;2022-10-31T00:19:47;4.30;;;1.77;;
9364;SDS011;4722;49.340;9.800;2022-10-31T00:22:13;4.47;;;1.52;;
9364;SDS011;4722;49.340;9.800;2022-10-31T00:24:39;2.50;;;1.45;;
9364;SDS011;4722;49.340;9.800;2022-10-31T00:27:05;4.32;;;1.45;;
9364;SDS011;4722;49.340;9.800;2022-10-31T00:29:30;3.58;;;1.77;;
9364;SDS011;4722;49.340;9.800;2022-10-31T00:31:56;3.53;;;2.17;;
9364;SDS011;4722;49.340;9.800;2022-10-31T00:34:22;5.18;;;1.25;;
9364;SDS011;4722;49.340;9.800;2022-10-31T00:36:48;5.32;;;1.30;;
9364;SDS011;4722;49.340;9.800;2022-10-31T00:39:14;4.40;;;2.15;;
9364;SDS011;4722;49.340;9.800;2022-10-31T00:41:40;3.45;;;1.63;;
9364;SDS011;4722;49.340;9.800;2022-10-31T00:44:06;4.97;;;1.20;;
9364;SDS011;4722;49.340;9.800;2022-10-31T00:46:32;2.28;;;1.42;;
9364;SDS011;4722;49.340;9.800;2022-10-31T00:48:58;1.75;;;0.98;;
9364;SDS011;4722;49.340;9.800;2022-10-31T00:51:24;3.78;;;1.38;;
9364;SDS011;4722;49.340;9.800;2022-10-31T00:53:50;5.75;;;1.80;;
9364;SDS011;4722;49.340;9.800;2022-10-31T00:56:16;2.55;;;1.35;;
9364;SDS011;4722;49.340;9.800;2022-10-31T01:01:43;4.70;;;1.60;;
9364;SDS011;4722;49.340;9.800;2022-10-31T01:04:10;3.30;;;1.77;;
9364;SDS011;4722;49.340;9.800;2022-10-31T01:06:36;2.58;;;1.10;;
9364;SDS011;4722;49.340;9.800;2022-10-31T01:09:02;8.00;;;2.10;;
9364;SDS011;4722;49.340;9.800;2022-10-31T01:11:28;3.28;;;1.67;;
9364;SDS011;4722;49.340;9.800;2022-10-31T01:13:54;2.38;;;1.33;;
9364;SDS011;4722;49.340;9.800;2022-10-31T01:16:22;1.88;;;1.00;;
9364;SDS011;4722;49.340;9.800;2022-10-31T01:18:48;3.05;;;1.67;;
9364;SDS011;4722;49.340;9.800;2022-10-31T01:21:15;3.17;;;1.13;;
9364;SDS011;4722;49.340;9.800;2022-10-31T01:23:41;4.63;;;1.00;;
9364;SDS011;4722;49.340;9.800;2022-10-31T01:26:21;2.95;;;1.48;;
9364;SDS011;4722;49.340;9.800;2022-10-31T01:28:48;4.10;;;1.40;;
9364;SDS011;4722;49.340;9.800;2022-10-31T01:31:14;11.70;;;1.83;;
9364;SDS011;4722;49.340;9.800;2022-10-31T01:33:41;2.10;;;1.20;;
9364;SDS011;4722;49.340;9.800;2022-10-31T01:36:11;4.72;;;1.25;;
9364;SDS011;4722;49.340;9.800;2022-10-31T01:38:54;5.10;;;1.45;;
9364;SDS011;4722;49.340;9.800;2022-10-31T01:41:22;1.35;;;0.93;;
9364;SDS011;4722;49.340;9.800;2022-10-31T01:46:20;2.60;;;1.20;;
9364;SDS011;4722;49.340;9.800;2022-10-31T01:48:47;2.30;;;1.25;;
9364;SDS011;4722;49.340;9.800;2022-10-31T01:51:13;1.65;;;1.00;;
9364;SDS011;4722;49.340;9.800;2022-10-31T01:53:41;4.65;;;1.30;;
9364;SDS011;4722;49.340;9.800;2022-10-31T01:56:09;1.90;;;1.05;;
9364;SDS011;4722;49.340;9.800;2022-10-31T01:58:35;2.10;;;1.20;;
9364;SDS011;4722;49.340;9.800;2022-10-31T02:01:01;2.55;;;1.30;;
9364;SDS011;4722;49.340;9.800;2022-10-31T02:03:28;7.22;;;1.83;;
9364;SDS011;4722;49.340;9.800;2022-10-31T02:05:54;2.72;;;1.92;;
9364;SDS011;4722;49.340;9.800;2022-10-31T02:10:47;3.47;;;1.95;;
9364;SDS011;4722;49.340;9.800;2022-10-31T02:13:13;3.63;;;1.50;;
9364;SDS011;4722;49.340;9.800;2022-10-31T02:15:40;4.47;;;1.80;;
9364;SDS011;4722;49.340;9.800;2022-10-31T02:18:07;4.50;;;1.60;;
9364;SDS011;4722;49.340;9.800;2022-10-31T02:31:14;5.97;;;1.15;;
9364;SDS011;4722;49.340;9.800;2022-10-31T02:36:21;4.45;;;1.90;;
9364;SDS011;4722;49.340;9.800;2022-10-31T02:39:02;2.17;;;1.40;;
9364;SDS011;4722;49.340;9.800;2022-10-31T02:41:34;10.23;;;2.00;;
9364;SDS011;4722;49.340;9.800;2022-10-31T02:46:38;6.05;;;1.58;;
9364;SDS011;4722;49.340;9.800;2022-10-31T02:49:34;2.30;;;1.33;;
9364;SDS011;4722;49.340;9.800;2022-10-31T02:52:01;2.10;;;1.10;;
9364;SDS011;4722;49.340;9.800;2022-10-31T02:54:27;4.13;;;1.48;;
9364;SDS011;4722;49.340;9.800;2022-10-31T02:56:55;5.18;;;1.73;;
9364;SDS011;4722;49.340;9.800;2022-10-31T02:59:23;5.60;;;1.77;;
9364;SDS011;4722;49.340;9.800;2022-10-31T03:04:28;1.80;;;0.93;;
9364;SDS011;4722;49.340;9.800;2022-10-31T03:09:50;3.38;;;1.50;;
9364;SDS011;4722;49.340;9.800;2022-10-31T03:12:29;6.45;;;2.28;;
9364;SDS011;4722;49.340;9.800;2022-10-31T03:15:10;2.65;;;1.45;;
9364;SDS011;4722;49.340;9.800;2022-10-31T03:17:39;4.88;;;1.73;;
9364;SDS011;4722;49.340;9.800;2022-10-31T03:20:07;3.08;;;1.45;;
9364;SDS011;4722;49.340;9.800;2022-10-31T03:22:34;2.47;;;1.48;;
9364;SDS011;4722;49.340;9.800;2022-10-31T03:25:02;7.97;;;1.45;;
9364;SDS011;4722;49.340;9.800;2022-10-31T03:27:30;2.70;;;1.70;;
9364;SDS011;4722;49.340;9.800;2022-10-31T03:29:57;4.72;;;1.58;;
9364;SDS011;4722;49.340;9.800;2022-10-31T03:32:29;6.30;;;1.65;;
9364;SDS011;4722;49.340;9.800;2022-10-31T03:34:59;2.83;;;1.52;;
9364;SDS011;4722;49.340;9.800;2022-10-31T03:37:27;1.70;;;1.15;;
9364;SDS011;4722;49.340;9.800;2022-10-31T03:39:55;7.05;;;1.55;;
9364;SDS011;4722;49.340;9.800;2022-10-31T03:42:24;3.67;;;1.67;;
9364;SDS011;4722;49.340;9.800;2022-10-31T03:47:23;4.13;;;1.10;;
9364;SDS011;4722;49.340;9.800;2022-10-31T03:49:49;6.40;;;1.67;;
9364;SDS011;4722;49.340;9.800;2022-10-31T03:52:21;3.63;;;1.70;;
9364;SDS011;4722;49.340;9.800;2022-10-31T03:54:53;2.55;;;1.63;;
9364;SDS011;4722;49.340;9.800;2022-10-31T03:57:31;3.15;;;1.73;;
9364;SDS011;4722;49.340;9.800;2022-10-31T04:00:06;5.07;;;1.85;;
9364;SDS011;4722;49.340;9.800;2022-10-31T04:02:33;4.50;;;2.13;;
9364;SDS011;4722;49.340;9.800;2022-10-31T04:05:00;2.30;;;1.35;;
9364;SDS011;4722;49.340;9.800;2022-10-31T04:07:28;6.95;;;1.33;;
9364;SDS011;4722;49.340;9.800;2022-10-31T04:09:55;10.35;;;1.67;;
9364;SDS011;4722;49.340;9.800;2022-10-31T04:12:22;4.75;;;2.13;;
9364;SDS011;4722;49.340;9.800;2022-10-31T04:14:49;10.85;;;2.63;;
9364;SDS011;4722;49.340;9.800;2022-10-31T04:17:17;2.83;;;1.50;;
9364;SDS011;4722;49.340;9.800;2022-10-31T04:19:44;5.00;;;2.15;;
9364;SDS011;4722;49.340;9.800;2022-10-31T04:22:10;6.60;;;2.00;;
9364;SDS011;4722;49.340;9.800;2022-10-31T04:24:37;3.95;;;2.00;;
9364;SDS011;4722;49.340;9.800;2022-10-31T04:27:04;5.00;;;1.95;;
9364;SDS011;4722;49.340;9.800;2022-10-31T04:29:30;3.90;;;2.05;;
9364;SDS011;4722;49.340;9.800;2022-10-31T04:31:56;5.25;;;1.80;;
9364;SDS011;4722;49.340;9.800;2022-10-31T04:34:22;2.40;;;1.45;;
9364;SDS011;4722;49.340;9.800;2022-10-31T04:36:48;3.70;;;1.77;;
9364;SDS011;4722;49.340;9.800;2022-10-31T04:39:14;3.15;;;1.95;;
9364;SDS011;4722;49.340;9.800;2022-10-31T04:41:40;2.22;;;1.40;;
9364;SDS011;4722;49.340;9.800;2022-10-31T04:44:06;5.18;;;2.33;;
9364;SDS011;4722;49.340;9.800;2022-10-31T04:46:32;3.63;;;1.67;;
9364;SDS011;4722;49.340;9.800;2022-10-31T04:48:57;2.80;;;1.10;;
9364;SDS011;4722;49.340;9.800;2022-10-31T04:51:23;6.00;;;1.80;;
9364;SDS011;4722;49.340;9.800;2022-10-31T04:53:49;2.75;;;1.60;;
9364;SDS011;4722;49.340;9.800;2022-10-31T04:56:15;6.13;;;1.98;;
9364;SDS011;4722;49.340;9.800;2022-10-31T04:58:41;3.95;;;1.70;;
9364;SDS011;4722;49.340;9.800;2022-10-31T05:01:07;3.45;;;2.13;;
9364;SDS011;4722;49.340;9.800;2022-10-31T05:03:33;6.50;;;1.73;;
9364;SDS011;4722;49.340;9.800;2022-10-31T05:05:59;9.07;;;2.65;;
9364;SDS011;4722;49.340;9.800;2022-10-31T05:08:25;4.47;;;1.88;;
9364;SDS011;4722;49.340;9.800;2022-10-31T05:10:51;3.88;;;2.00;;
9364;SDS011;4722;49.340;9.800;2022-10-31T05:13:17;4.40;;;1.83;;
9364;SDS011;4722;49.340;9.800;2022-10-31T05:15:43;6.20;;;1.67;;
9364;SDS011;4722;49.340;9.800;2022-10-31T05:18:09;3.80;;;2.17;;
9364;SDS011;4722;49.340;9.800;2022-10-31T05:20:34;5.57;;;2.47;;
9364;SDS011;4722;49.340;9.800;2022-10-31T05:23:00;3.50;;;1.98;;
9364;SDS011;4722;49.340;9.800;2022-10-31T05:25:27;6.97;;;2.20;;
9364;SDS011;4722;49.340;9.800;2022-10-31T05:27:53;4.03;;;1.90;;
9364;SDS011;4722;49.340;9.800;2022-10-31T05:30:21;2.67;;;1.58;;
9364;SDS011;4722;49.340;9.800;2022-10-31T05:32:49;2.20;;;1.40;;
9364;SDS011;4722;49.340;9.800;2022-10-31T05:35:16;4.68;;;2.17;;
9364;SDS011;4722;49.340;9.800;2022-10-31T05:37:46;4.43;;;1.83;;
9364;SDS011;4722;49.340;9.800;2022-10-31T05:40:13;3.65;;;1.90;;
9364;SDS011;4722;49.340;9.800;2022-10-31T05:42:40;3.33;;;2.10;;
9364;SDS011;4722;49.340;9.800;2022-10-31T05:45:09;3.78;;;2.00;;
9364;SDS011;4722;49.340;9.800;2022-10-31T05:47:36;5.25;;;2.97;;
9364;SDS011;4722;49.340;9.800;2022-10-31T05:50:02;2.97;;;1.70;;
9364;SDS011;4722;49.340;9.800;2022-10-31T05:52:28;4.82;;;1.95;;
9364;SDS011;4722;49.340;9.800;2022-10-31T05:54:54;3.40;;;1.67;;
9364;SDS011;4722;49.340;9.800;2022-10-31T05:57:20;4.82;;;2.35;;
9364;SDS011;4722;49.340;9.800;2022-10-31T05:59:46;2.15;;;1.45;;
9364;SDS011;4722;49.340;9.800;2022-10-31T06:02:11;4.32;;;2.42;;
9364;SDS011;4722;49.340;9.800;2022-10-31T06:04:37;3.47;;;1.98;;
9364;SDS011;4722;49.340;9.800;2022-10-31T06:07:03;5.43;;;2.00;;
9364;SDS011;4722;49.340;9.800;2022-10-31T06:09:29;3.28;;;2.08;;
9364;SDS011;4722;49.340;9.800;2022-10-31T06:11:55;2.95;;;1.75;;
9364;SDS011;4722;49.340;9.800;2022-10-31T06:14:21;3.50;;;2.15;;
9364;SDS011;4722;49.340;9.800;2022-10-31T06:16:47;5.40;;;2.30;;
9364;SDS011;4722;49.340;9.800;2022-10-31T06:19:13;9.95;;;4.50;;
9364;SDS011;4722;49.340;9.800;2022-10-31T06:21:39;38.22;;;15.25;;
9364;SDS011;4722;49.340;9.800;2022-10-31T06:24:05;28.77;;;11.07;;
9364;SDS011;4722;49.340;9.800;2022-10-31T06:26:31;10.48;;;4.40;;
9364;SDS011;4722;49.340;9.800;2022-10-31T06:28:57;7.85;;;3.53;;
9364;SDS011;4722;49.340;9.800;2022-10-31T06:31:23;6.90;;;3.08;;
9364;SDS011;4722;49.340;9.800;2022-10-31T06:33:49;4.47;;;2.53;;
9364;SDS011;4722;49.340;9.800;2022-10-31T06:36:15;6.25;;;3.15;;
9364;SDS011;4722;49.340;9.800;2022-10-31T06:38:41;4.65;;;2.90;;
9364;SDS011;4722;49.340;9.800;2022-10-31T06:41:07;11.13;;;3.17;;
9364;SDS011;4722;49.340;9.800;2022-10-31T06:43:32;6.68;;;2.90;;
9364;SDS011;4722;49.340;9.800;2022-10-31T06:46:02;6.13;;;2.45;;
9364;SDS011;4722;49.340;9.800;2022-10-31T06:48:28;6.18;;;2.75;;
9364;SDS011;4722;49.340;9.800;2022-10-31T06:50:57;5.22;;;3.08;;
9364;SDS011;4722;49.340;9.800;2022-10-31T06:53:23;4.20;;;2.60;;
9364;SDS011;4722;49.340;9.800;2022-10-31T06:55:49;5.00;;;2.60;;
9364;SDS011;4722;49.340;9.800;2022-10-31T06:58:15;11.10;;;2.60;;
9364;SDS011;4722;49.340;9.800;2022-10-31T07:00:41;4.07;;;2.58;;
9364;SDS011;4722;49.340;9.800;2022-10-31T07:03:10;10.98;;;2.85;;
9364;SDS011;4722;49.340;9.800;2022-10-31T07:05:38;5.55;;;2.70;;
9364;SDS011;4722;49.340;9.800;2022-10-31T07:08:05;6.70;;;2.75;;
9364;SDS011;4722;49.340;9.800;2022-10-31T07:10:32;5.20;;;2.88;;
9364;SDS011;4722;49.340;9.800;2022-10-31T07:13:02;11.20;;;2.92;;
9364;SDS011;4722;49.340;9.800;2022-10-31T07:15:29;5.63;;;2.72;;
9364;SDS011;4722;49.340;9.800;2022-10-31T07:17:59;6.63;;;3.00;;
9364;SDS011;4722;49.340;9.800;2022-10-31T07:20:28;4.70;;;2.90;;
9364;SDS011;4722;49.340;9.800;2022-10-31T07:22:54;6.30;;;3.03;;
9364;SDS011;4722;49.340;9.800;2022-10-31T07:25:20;4.97;;;2.85;;
9364;SDS011;4722;49.340;9.800;2022-10-31T07:27:46;6.20;;;2.38;;
9364;SDS011;4722;49.340;9.800;2022-10-31T07:30:13;3.78;;;2.28;;
9364;SDS011;4722;49.340;9.800;2022-10-31T07:32:42;11.35;;;2.85;;
9364;SDS011;4722;49.340;9.800;2022-10-31T07:35:09;4.78;;;3.05;;
9364;SDS011;4722;49.340;9.800;2022-10-31T07:37:36;6.65;;;3.22;;
9364;SDS011;4722;49.340;9.800;2022-10-31T07:40:03;5.28;;;3.22;;
9364;SDS011;4722;49.340;9.800;2022-10-31T07:42:34;8.77;;;2.75;;
9364;SDS011;4722;49.340;9.800;2022-10-31T07:45:00;5.97;;;3.00;;
9364;SDS011;4722;49.340;9.800;2022-10-31T07:47:26;6.15;;;3.70;;
9364;SDS011;4722;49.340;9.800;2022-10-31T07:49:52;5.60;;;2.92;;
9364;SDS011;4722;49.340;9.800;2022-10-31T07:52:18;6.78;;;3.42;;
9364;SDS011;4722;49.340;9.800;2022-10-31T07:54:44;5.20;;;3.25;;
9364;SDS011;4722;49.340;9.800;2022-10-31T07:57:10;6.93;;;3.97;;
9364;SDS011;4722;49.340;9.800;2022-10-31T07:59:36;8.25;;;3.20;;
9364;SDS011;4722;49.340;9.800;2022-10-31T08:02:01;5.10;;;3.47;;
9364;SDS011;4722;49.340;9.800;2022-10-31T08:04:27;7.38;;;3.60;;
9364;SDS011;4722;49.340;9.800;2022-10-31T08:06:53;5.60;;;3.75;;
9364;SDS011;4722;49.340;9.800;2022-10-31T08:09:19;8.18;;;4.00;;
9364;SDS011;4722;49.340;9.800;2022-10-31T08:11:45;11.57;;;4.18;;
9364;SDS011;4722;49.340;9.800;2022-10-31T08:14:11;8.05;;;4.10;;
9364;SDS011;4722;49.340;9.800;2022-10-31T08:16:37;8.60;;;4.57;;
9364;SDS011;4722;49.340;9.800;2022-10-31T08:19:03;12.60;;;6.47;;
9364;SDS011;4722;49.340;9.800;2022-10-31T08:21:29;17.20;;;7.25;;
9364;SDS011;4722;49.340;9.800;2022-10-31T08:23:55;16.45;;;8.48;;
9364;SDS011;4722;49.340;9.800;2022-10-31T08:26:21;15.32;;;8.18;;
9364;SDS011;4722;49.340;9.800;2022-10-31T08:28:47;15.10;;;8.75;;
9364;SDS011;4722;49.340;9.800;2022-10-31T08:31:14;19.35;;;7.93;;
9364;SDS011;4722;49.340;9.800;2022-10-31T08:33:40;18.48;;;7.20;;
9364;SDS011;4722;49.340;9.800;2022-10-31T08:36:06;7.20;;;4.65;;
9364;SDS011;4722;49.340;9.800;2022-10-31T08:38:32;10.38;;;2.90;;
9364;SDS011;4722;49.340;9.800;2022-10-31T08:40:58;4.82;;;2.42;;
9364;SDS011;4722;49.340;9.800;2022-10-31T08:43:24;4.47;;;1.98;;
9364;SDS011;4722;49.340;9.800;2022-10-31T08:45:50;6.18;;;1.45;;
9364;SDS011;4722;49.340;9.800;2022-10-31T08:48:16;6.32;;;2.78;;
9364;SDS011;4722;49.340;9.800;2022-10-31T08:50:42;5.13;;;2.95;;
9364;SDS011;4722;49.340;9.800;2022-10-31T08:53:09;3.65;;;1.85;;
9364;SDS011;4722;49.340;9.800;2022-10-31T08:55:43;5.88;;;2.15;;
9364;SDS011;4722;49.340;9.800;2022-10-31T08:58:11;3.65;;;2.25;;
9364;SDS011;4722;49.340;9.800;2022-10-31T09:00:39;3.25;;;1.83;;
9364;SDS011;4722;49.340;9.800;2022-10-31T09:03:06;7.50;;;2.35;;
9364;SDS011;4722;49.340;9.800;2022-10-31T09:05:32;5.85;;;1.90;;
9364;SDS011;4722;49.340;9.800;2022-10-31T09:07:58;8.68;;;3.15;;
9364;SDS011;4722;49.340;9.800;2022-10-31T09:10:25;4.20;;;2.17;;
9364;SDS011;4722;49.340;9.800;2022-10-31T09:12:55;3.65;;;2.28;;
9364;SDS011;4722;49.340;9.800;2022-10-31T09:15:25;5.05;;;2.55;;
9364;SDS011;4722;49.340;9.800;2022-10-31T09:17:51;9.02;;;2.40;;
9364;SDS011;4722;49.340;9.800;2022-10-31T09:20:17;3.80;;;2.30;;
9364;SDS011;4722;49.340;9.800;2022-10-31T09:22:43;7.68;;;2.78;;
9364;SDS011;4722;49.340;9.800;2022-10-31T09:25:09;3.78;;;2.35;;
9364;SDS011;4722;49.340;9.800;2022-10-31T09:27:35;5.50;;;2.70;;
9364;SDS011;4722;49.340;9.800;2022-10-31T09:30:02;6.35;;;2.17;;
9364;SDS011;4722;49.340;9.800;2022-10-31T09:32:28;4.15;;;2.08;;
9364;SDS011;4722;49.340;9.800;2022-10-31T09:34:54;4.30;;;2.05;;
9364;SDS011;4722;49.340;9.800;2022-10-31T09:37:20;4.90;;;2.17;;
9364;SDS011;4722;49.340;9.800;2022-10-31T09:39:46;4.72;;;2.30;;
9364;SDS011;4722;49.340;9.800;2022-10-31T09:45:12;4.30;;;2.58;;
9364;SDS011;4722;49.340;9.800;2022-10-31T09:47:57;9.98;;;3.45;;
9364;SDS011;4722;49.340;9.800;2022-10-31T09:50:46;4.65;;;2.33;;
9364;SDS011;4722;49.340;9.800;2022-10-31T09:53:25;5.05;;;2.75;;
9364;SDS011;4722;49.340;9.800;2022-10-31T09:55:59;6.10;;;2.85;;
9364;SDS011;4722;49.340;9.800;2022-10-31T09:58:27;4.53;;;2.53;;
9364;SDS011;4722;49.340;9.800;2022-10-31T10:00:56;5.95;;;2.28;;
9364;SDS011;4722;49.340;9.800;2022-10-31T10:08:30;5.95;;;2.60;;
9364;SDS011;4722;49.340;9.800;2022-10-31T10:14:11;4.97;;;2.47;;
9364;SDS011;4722;49.340;9.800;2022-10-31T10:22:18;6.75;;;2.13;;
9364;SDS011;4722;49.340;9.800;2022-10-31T10:29:59;3.33;;;2.67;;
9364;SDS011;4722;49.340;9.800;2022-10-31T10:35:08;5.35;;;2.13;;
9364;SDS011;4722;49.340;9.800;2022-10-31T10:37:44;4.63;;;2.25;;
9364;SDS011;4722;49.340;9.800;2022-10-31T10:40:16;6.40;;;2.05;;
9364;SDS011;4722;49.340;9.800;2022-10-31T10:42:44;6.93;;;2.13;;
9364;SDS011;4722;49.340;9.800;2022-10-31T10:45:39;4.40;;;2.20;;
9364;SDS011;4722;49.340;9.800;2022-10-31T10:48:33;3.72;;;1.52;;
9364;SDS011;4722;49.340;9.800;2022-10-31T10:51:18;3.15;;;1.92;;
9364;SDS011;4722;49.340;9.800;2022-10-31T10:59:22;6.03;;;1.85;;
9364;SDS011;4722;49.340;9.800;2022-10-31T11:01:50;4.22;;;2.35;;
9364;SDS011;4722;49.340;9.800;2022-10-31T11:04:33;4.63;;;1.80;;
9364;SDS011;4722;49.340;9.800;2022-10-31T11:07:07;3.95;;;1.90;;
9364;SDS011;4722;49.340;9.800;2022-10-31T11:09:36;7.80;;;2.17;;
9364;SDS011;4722;49.340;9.800;2022-10-31T11:14:58;6.43;;;1.70;;
9364;SDS011;4722;49.340;9.800;2022-10-31T11:17:38;4.90;;;2.50;;
9364;SDS011;4722;49.340;9.800;2022-10-31T11:20:16;5.10;;;2.00;;
9364;SDS011;4722;49.340;9.800;2022-10-31T11:22:46;3.95;;;2.00;;
9364;SDS011;4722;49.340;9.800;2022-10-31T11:27:44;4.60;;;1.67;;
9364;SDS011;4722;49.340;9.800;2022-10-31T11:30:11;11.02;;;2.15;;
9364;SDS011;4722;49.340;9.800;2022-10-31T11:32:39;7.47;;;2.20;;
9364;SDS011;4722;49.340;9.800;2022-10-31T11:35:12;4.13;;;1.98;;
9364;SDS011;4722;49.340;9.800;2022-10-31T11:37:43;9.93;;;2.58;;
9364;SDS011;4722;49.340;9.800;2022-10-31T11:40:14;5.43;;;2.00;;
9364;SDS011;4722;49.340;9.800;2022-10-31T11:42:42;7.82;;;2.03;;
9364;SDS011;4722;49.340;9.800;2022-10-31T11:45:15;4.80;;;2.13;;
9364;SDS011;4722;49.340;9.800;2022-10-31T11:47:47;6.75;;;2.50;;
9364;SDS011;4722;49.340;9.800;2022-10-31T11:50:18;5.43;;;3.03;;
9364;SDS011;4722;49.340;9.800;2022-10-31T11:52:49;7.97;;;2.22;;
9364;SDS011;4722;49.340;9.800;2022-10-31T11:55:34;5.22;;;2.45;;
9364;SDS011;4722;49.340;9.800;2022-10-31T11:58:02;3.22;;;1.80;;
9364;SDS011;4722;49.340;9.800;2022-10-31T12:00:33;4.32;;;2.20;;
9364;SDS011;4722;49.340;9.800;2022-10-31T12:06:09;4.63;;;2.25;;
9364;SDS011;4722;49.340;9.800;2022-10-31T12:08:45;7.82;;;1.70;;
9364;SDS011;4722;49.340;9.800;2022-10-31T12:19:21;5.13;;;1.92;;
9364;SDS011;4722;49.340;9.800;2022-10-31T12:21:59;8.60;;;2.45;;
9364;SDS011;4722;49.340;9.800;2022-10-31T12:24:55;7.10;;;2.47;;
9364;SDS011;4722;49.340;9.800;2022-10-31T12:52:43;10.00;;;2.93;;
9364;SDS011;4722;49.340;9.800;2022-10-31T12:55:40;7.70;;;1.98;;
9364;SDS011;4722;49.340;9.800;2022-10-31T12:58:23;7.50;;;2.30;;
9364;SDS011;4722;49.340;9.800;2022-10-31T13:06:30;5.95;;;2.20;;
9364;SDS011;4722;49.340;9.800;2022-10-31T13:09:03;5.03;;;2.10;;
9364;SDS011;4722;49.340;9.800;2022-10-31T13:11:41;8.65;;;2.78;;
9364;SDS011;4722;49.340;9.800;2022-10-31T13:17:00;6.90;;;3.47;;
9364;SDS011;4722;49.340;9.800;2022-10-31T13:19:31;11.18;;;4.32;;
9364;SDS011;4722;49.340;9.800;2022-10-31T13:27:30;4.50;;;2.55;;
9364;SDS011;4722;49.340;9.800;2022-10-31T13:36:04;7.78;;;4.03;;
9364;SDS011;4722;49.340;9.800;2022-10-31T13:38:57;14.00;;;3.38;;
9364;SDS011;4722;49.340;9.800;2022-10-31T13:46:49;4.70;;;2.50;;
9364;SDS011;4722;49.340;9.800;2022-10-31T13:49:36;4.32;;;2.40;;
9364;SDS011;4722;49.340;9.800;2022-10-31T13:54:37;4.23;;;2.63;;
9364;SDS011;4722;49.340;9.800;2022-10-31T13:59:59;4.88;;;2.65;;
9364;SDS011;4722;49.340;9.800;2022-10-31T14:04:56;8.43;;;2.65;;
9364;SDS011;4722;49.340;9.800;2022-10-31T14:07:23;6.55;;;2.58;;
9364;SDS011;4722;49.340;9.800;2022-10-31T14:10:02;10.38;;;4.18;;
9364;SDS011;4722;49.340;9.800;2022-10-31T14:12:35;5.93;;;2.95;;
9364;SDS011;4722;49.340;9.800;2022-10-31T14:15:13;7.68;;;3.45;;
9364;SDS011;4722;49.340;9.800;2022-10-31T14:17:49;8.88;;;3.38;;
9364;SDS011;4722;49.340;9.800;2022-10-31T14:22:42;18.38;;;10.50;;
9364;SDS011;4722;49.340;9.800;2022-10-31T14:28:22;7.60;;;4.45;;
9364;SDS011;4722;49.340;9.800;2022-10-31T14:30:58;10.25;;;4.55;;
9364;SDS011;4722;49.340;9.800;2022-10-31T14:33:25;8.45;;;4.68;;
9364;SDS011;4722;49.340;9.800;2022-10-31T14:36:12;8.90;;;3.75;;
9364;SDS011;4722;49.340;9.800;2022-10-31T14:44:15;10.40;;;5.07;;
9364;SDS011;4722;49.340;9.800;2022-10-31T14:52:23;19.13;;;5.65;;
9364;SDS011;4722;49.340;9.800;2022-10-31T14:54:53;10.52;;;4.93;;
9364;SDS011;4722;49.340;9.800;2022-10-31T15:00:04;10.07;;;4.50;;
9364;SDS011;4722;49.340;9.800;2022-10-31T15:02:40;10.35;;;4.00;;
9364;SDS011;4722;49.340;9.800;2022-10-31T15:05:16;8.90;;;5.00;;
9364;SDS011;4722;49.340;9.800;2022-10-31T15:07:49;7.53;;;4.57;;
9364;SDS011;4722;49.340;9.800;2022-10-31T15:10:21;13.20;;;4.93;;
9364;SDS011;4722;49.340;9.800;2022-10-31T15:12:48;11.38;;;4.80;;
9364;SDS011;4722;49.340;9.800;2022-10-31T15:15:17;8.20;;;4.03;;
9364;SDS011;4722;49.340;9.800;2022-10-31T15:17:46;12.23;;;5.10;;
9364;SDS011;4722;49.340;9.800;2022-10-31T15:20:24;9.75;;;4.20;;
9364;SDS011;4722;49.340;9.800;2022-10-31T15:22:51;10.48;;;4.18;;
9364;SDS011;4722;49.340;9.800;2022-10-31T15:25:19;5.93;;;3.65;;
9364;SDS011;4722;49.340;9.800;2022-10-31T15:27:47;10.70;;;4.30;;
9364;SDS011;4722;49.340;9.800;2022-10-31T15:30:18;9.30;;;4.25;;
9364;SDS011;4722;49.340;9.800;2022-10-31T15:32:52;9.93;;;4.40;;
9364;SDS011;4722;49.340;9.800;2022-10-31T15:37:47;10.00;;;4.90;;
9364;SDS011;4722;49.340;9.800;2022-10-31T15:40:16;9.93;;;4.65;;
9364;SDS011;4722;49.340;9.800;2022-10-31T15:42:44;17.38;;;4.50;;
9364;SDS011;4722;49.340;9.800;2022-10-31T15:45:25;8.25;;;4.00;;
9364;SDS011;4722;49.340;9.800;2022-10-31T15:55:57;11.15;;;4.32;;
9364;SDS011;4722;49.340;9.800;2022-10-31T15:58:23;12.75;;;5.43;;
9364;SDS011;4722;49.340;9.800;2022-10-31T16:00:59;9.57;;;4.38;;
9364;SDS011;4722;49.340;9.800;2022-10-31T16:03:27;11.77;;;5.07;;
9364;SDS011;4722;49.340;9.800;2022-10-31T16:05:56;9.90;;;5.28;;
9364;SDS011;4722;49.340;9.800;2022-10-31T16:10:49;9.68;;;5.13;;
9364;SDS011;4722;49.340;9.800;2022-10-31T16:13:15;7.82;;;4.47;;
9364;SDS011;4722;49.340;9.800;2022-10-31T16:15:48;7.40;;;4.65;;
9364;SDS011;4722;49.340;9.800;2022-10-31T16:18:16;9.43;;;5.22;;
9364;SDS011;4722;49.340;9.800;2022-10-31T16:20:47;10.88;;;5.55;;
9364;SDS011;4722;49.340;9.800;2022-10-31T16:23:16;11.07;;;4.97;;
9364;SDS011;4722;49.340;9.800;2022-10-31T16:25:43;12.55;;;5.95;;
9364;SDS011;4722;49.340;9.800;2022-10-31T16:28:19;8.95;;;5.15;;
9364;SDS011;4722;49.340;9.800;2022-10-31T16:30:47;18.13;;;5.82;;
9364;SDS011;4722;49.340;9.800;2022-10-31T16:35:52;12.95;;;6.07;;
9364;SDS011;4722;49.340;9.800;2022-10-31T16:38:18;10.07;;;5.70;;
9364;SDS011;4722;49.340;9.800;2022-10-31T16:40:44;20.40;;;9.57;;
9364;SDS011;4722;49.340;9.800;2022-10-31T16:43:11;14.38;;;7.47;;
9364;SDS011;4722;49.340;9.800;2022-10-31T16:45:37;14.95;;;7.70;;
9364;SDS011;4722;49.340;9.800;2022-10-31T16:48:13;10.45;;;5.85;;
9364;SDS011;4722;49.340;9.800;2022-10-31T16:50:40;15.02;;;6.55;;
9364;SDS011;4722;49.340;9.800;2022-10-31T16:53:07;11.65;;;6.30;;
9364;SDS011;4722;49.340;9.800;2022-10-31T16:55:33;12.15;;;5.82;;
9364;SDS011;4722;49.340;9.800;2022-10-31T16:58:02;15.13;;;7.78;;
9364;SDS011;4722;49.340;9.800;2022-10-31T17:00:28;19.15;;;8.85;;
9364;SDS011;4722;49.340;9.800;2022-10-31T17:02:55;22.48;;;8.57;;
9364;SDS011;4722;49.340;9.800;2022-10-31T17:05:21;14.95;;;7.55;;
9364;SDS011;4722;49.340;9.800;2022-10-31T17:07:54;13.82;;;6.43;;
9364;SDS011;4722;49.340;9.800;2022-10-31T17:10:20;12.93;;;6.80;;
9364;SDS011;4722;49.340;9.800;2022-10-31T17:12:46;15.30;;;7.88;;
9364;SDS011;4722;49.340;9.800;2022-10-31T17:15:17;15.15;;;8.82;;
9364;SDS011;4722;49.340;9.800;2022-10-31T17:17:45;14.93;;;6.22;;
9364;SDS011;4722;49.340;9.800;2022-10-31T17:20:15;15.32;;;6.45;;
9364;SDS011;4722;49.340;9.800;2022-10-31T17:22:41;12.63;;;5.55;;
9364;SDS011;4722;49.340;9.800;2022-10-31T17:25:08;12.18;;;5.35;;
9364;SDS011;4722;49.340;9.800;2022-10-31T17:27:39;10.20;;;5.80;;
9364;SDS011;4722;49.340;9.800;2022-10-31T17:30:05;8.35;;;5.18;;
9364;SDS011;4722;49.340;9.800;2022-10-31T17:32:31;10.65;;;5.80;;
9364;SDS011;4722;49.340;9.800;2022-10-31T17:34:57;15.05;;;6.93;;
9364;SDS011;4722;49.340;9.800;2022-10-31T17:37:23;14.32;;;6.65;;
9364;SDS011;4722;49.340;9.800;2022-10-31T17:39:48;11.35;;;6.25;;
9364;SDS011;4722;49.340;9.800;2022-10-31T17:42:14;13.35;;;5.60;;
9364;SDS011;4722;49.340;9.800;2022-10-31T17:44:40;12.90;;;6.68;;
9364;SDS011;4722;49.340;9.800;2022-10-31T17:47:07;11.95;;;6.38;;
9364;SDS011;4722;49.340;9.800;2022-10-31T17:49:33;12.55;;;6.03;;
9364;SDS011;4722;49.340;9.800;2022-10-31T17:51:58;12.65;;;6.78;;
9364;SDS011;4722;49.340;9.800;2022-10-31T17:54:24;10.70;;;6.10;;
9364;SDS011;4722;49.340;9.800;2022-10-31T17:56:52;13.95;;;7.40;;
9364;SDS011;4722;49.340;9.800;2022-10-31T17:59:17;16.13;;;7.82;;
9364;SDS011;4722;49.340;9.800;2022-10-31T18:01:43;10.90;;;6.25;;
9364;SDS011;4722;49.340;9.800;2022-10-31T18:04:10;14.13;;;6.25;;
9364;SDS011;4722;49.340;9.800;2022-10-31T18:06:36;13.27;;;6.55;;
9364;SDS011;4722;49.340;9.800;2022-10-31T18:09:02;20.60;;;9.30;;
9364;SDS011;4722;49.340;9.800;2022-10-31T18:11:29;15.50;;;10.23;;
9364;SDS011;4722;49.340;9.800;2022-10-31T18:13:55;21.85;;;9.32;;